Sharon, California
Current Conditions -  °F | °C
As of 2:53 PM on Thursday 23 Oct 2014 (Local Time) from KMAE Reporting Station
Clear Clear  
Wind Chill: 77°   Ceiling: Unl
Heat Index: 78°   Visibility: 10mi
Dew Point: 41°   Wind: 6mph
Humidity: 28%   Direction: 310°NW
Pressure: 30"   Gusts: NA
Location:  37.1043°N, 120.246°W
Report Text: KMAE 232153Z AUTO 31005KT 10SM CLR 25/05 A3000 RMK AO2 SLP156 T02500050 $
Loading
Personal Weather Stations






























Interactive Weather Map
Tropical Storm Tracking
New forecast layout! Learn more

10-Day Weather Forecast

Advertisements
Track Severe Weather on mobile